Time;durP1;ratioP1;P1;durP2;ratioP2;P2;SDS_P1;SDS_P2;PMS_P1;PMS_P2;Temp;Humidity;BMP_temperature;BMP_pressure;BME280_temperature;BME280_humidity;BME280_pressure;Samples;Min_cycle;Max_cycle;Signal;HPM_P1;HPM_P2
2021/11/26 00:00:16;;;;;;;54.37;32.77;;;3.70;99.90;;;;;;5033531;28;20569;-87
2021/11/26 00:02:43;;;;;;;52.57;34.37;;;3.70;99.90;;;;;;5032247;28;20988;-85
2021/11/26 00:05:10;;;;;;;52.73;33.20;;;3.80;99.90;;;;;;5035550;28;20820;-86
2021/11/26 00:07:36;;;;;;;58.10;34.23;;;3.80;99.90;;;;;;5033478;28;20455;-86
2021/11/26 00:10:06;;;;;;;54.73;34.13;;;3.80;99.90;;;;;;5032484;28;20454;-87
2021/11/26 00:12:33;;;;;;;56.93;34.13;;;3.80;99.90;;;;;;5033081;28;20484;-86
2021/11/26 00:15:15;;;;;;;55.30;36.77;;;3.80;99.90;;;;;;5033721;28;20456;-85
2021/11/26 00:17:51;;;;;;;57.93;34.43;;;3.70;99.90;;;;;;5043637;28;20437;-85
2021/11/26 00:20:18;;;;;;;53.00;33.00;;;3.70;99.90;;;;;;5032305;28;20563;-86
2021/11/26 00:22:45;;;;;;;58.47;35.33;;;3.70;99.90;;;;;;5043279;28;20456;-86
2021/11/26 00:25:14;;;;;;;59.80;33.70;;;3.70;99.90;;;;;;5034048;28;20752;-86
2021/11/26 00:27:41;;;;;;;59.13;35.00;;;3.60;99.90;;;;;;5034755;28;20824;-87
2021/11/26 00:30:09;;;;;;;55.33;35.50;;;3.60;99.90;;;;;;5040909;28;20442;-86
2021/11/26 00:32:36;;;;;;;51.07;31.93;;;3.70;99.90;;;;;;5057044;28;20457;-86
2021/11/26 00:35:04;;;;;;;52.40;32.07;;;3.60;99.90;;;;;;5040108;28;20451;-86
2021/11/26 00:37:31;;;;;;;52.20;33.50;;;3.60;99.90;;;;;;5033143;28;20473;-86
2021/11/26 00:39:57;;;;;;;52.70;31.53;;;3.70;99.90;;;;;;5035455;28;20486;-86
2021/11/26 00:42:26;;;;;;;55.23;33.13;;;3.70;99.90;;;;;;5034491;28;20976;-86
2021/11/26 00:44:52;;;;;;;51.77;34.60;;;3.60;99.90;;;;;;5036820;28;20454;-85
2021/11/26 00:47:20;;;;;;;54.47;33.70;;;3.60;99.90;;;;;;5032805;28;20803;-86
2021/11/26 00:49:48;;;;;;;58.47;34.90;;;3.60;99.90;;;;;;5033072;28;20542;-86
2021/11/26 00:52:15;;;;;;;60.60;35.67;;;3.60;99.90;;;;;;5032643;28;20513;-86
2021/11/26 00:54:42;;;;;;;52.43;31.30;;;3.60;99.90;;;;;;5041415;28;20441;-86
2021/11/26 00:57:09;;;;;;;54.10;31.90;;;3.60;99.90;;;;;;5048883;28;20448;-86
2021/11/26 00:59:39;;;;;;;54.50;32.80;;;3.60;99.90;;;;;;5045579;28;20489;-87
2021/11/26 01:02:06;;;;;;;56.97;34.10;;;3.60;99.90;;;;;;5043157;28;20491;-87
2021/11/26 01:04:33;;;;;;;54.30;33.80;;;3.60;99.90;;;;;;5075658;22;20489;-85
2021/11/26 01:07:00;;;;;;;55.43;34.07;;;3.60;99.90;;;;;;5054535;28;20449;-86
2021/11/26 01:09:27;;;;;;;54.00;32.33;;;3.60;99.90;;;;;;5058289;28;20435;-86
2021/11/26 01:11:54;;;;;;;59.77;34.53;;;3.60;99.90;;;;;;5054375;28;20482;-85
2021/11/26 01:14:22;;;;;;;56.03;33.53;;;3.60;99.90;;;;;;5055366;28;20469;-86
2021/11/26 01:16:51;;;;;;;58.57;34.13;;;3.60;99.90;;;;;;5041704;28;20538;-86
2021/11/26 01:19:18;;;;;;;53.33;32.77;;;3.60;99.90;;;;;;5035554;28;20477;-85
2021/11/26 01:21:45;;;;;;;58.80;35.17;;;3.60;99.90;;;;;;5049390;28;20454;-86
2021/11/26 01:24:12;;;;;;;54.13;32.20;;;3.60;99.90;;;;;;5055464;28;20468;-86
2021/11/26 01:26:39;;;;;;;58.27;32.80;;;3.60;99.90;;;;;;5040326;28;20454;-86
2021/11/26 01:29:06;;;;;;;57.40;35.00;;;3.60;99.90;;;;;;5035314;28;20453;-86
2021/11/26 01:31:34;;;;;;;64.20;37.57;;;3.60;99.90;;;;;;5047047;28;20454;-85
2021/11/26 01:34:04;;;;;;;55.83;36.77;;;3.60;99.90;;;;;;5054417;28;20521;-86
2021/11/26 01:36:32;;;;;;;62.37;36.63;;;3.60;99.90;;;;;;5042257;28;20453;-85
2021/11/26 01:38:59;;;;;;;51.60;32.10;;;3.60;99.90;;;;;;5034350;28;20487;-86
2021/11/26 01:41:26;;;;;;;50.67;32.63;;;3.60;99.90;;;;;;5050009;28;20455;-86
2021/11/26 01:43:53;;;;;;;52.67;33.00;;;3.60;99.90;;;;;;5054663;28;20472;-85
2021/11/26 01:46:20;;;;;;;53.47;33.50;;;3.60;99.90;;;;;;5050417;28;20462;-86
2021/11/26 01:48:46;;;;;;;50.07;31.80;;;3.60;99.90;;;;;;5047297;28;20445;-84
2021/11/26 01:51:15;;;;;;;54.60;34.43;;;3.60;99.90;;;;;;5077655;28;20451;-83
2021/11/26 01:53:41;;;;;;;59.70;36.40;;;3.60;99.90;;;;;;5059464;28;20453;-86
2021/11/26 01:56:09;;;;;;;53.27;35.90;;;3.60;99.90;;;;;;5054263;28;20452;-85
2021/11/26 01:58:36;;;;;;;56.80;34.40;;;3.50;99.90;;;;;;5065768;28;20455;-85
2021/11/26 02:01:04;;;;;;;57.30;36.03;;;3.60;99.90;;;;;;5057474;28;20999;-85
2021/11/26 02:03:31;;;;;;;53.70;33.07;;;3.50;99.90;;;;;;5054625;28;20486;-86
2021/11/26 02:05:58;;;;;;;56.00;34.73;;;3.50;99.90;;;;;;5045205;28;20586;-83
2021/11/26 02:08:26;;;;;;;52.77;31.93;;;3.50;99.90;;;;;;5058619;28;20459;-84
2021/11/26 02:10:53;;;;;;;56.47;34.87;;;3.60;99.90;;;;;;5047806;28;20437;-85
2021/11/26 02:13:20;;;;;;;59.53;35.40;;;3.60;99.90;;;;;;5044801;28;20469;-85
2021/11/26 02:15:48;;;;;;;57.77;35.40;;;3.60;99.90;;;;;;5056130;28;20452;-86
2021/11/26 02:18:16;;;;;;;62.73;35.40;;;3.60;99.90;;;;;;5056202;28;20473;-85
2021/11/26 02:20:45;;;;;;;58.97;35.13;;;3.40;99.90;;;;;;5036091;28;20493;-86
2021/11/26 02:23:12;;;;;;;63.33;35.70;;;3.40;99.90;;;;;;5051166;28;20473;-85
2021/11/26 02:25:39;;;;;;;57.97;34.60;;;3.40;99.90;;;;;;5048223;28;20454;-86
2021/11/26 02:28:07;;;;;;;63.00;34.07;;;3.40;99.90;;;;;;5046729;28;20447;-86
2021/11/26 02:30:35;;;;;;;55.30;33.37;;;3.50;99.90;;;;;;5057250;28;20448;-86
2021/11/26 02:33:04;;;;;;;57.90;34.57;;;3.50;99.90;;;;;;5058031;28;20472;-85
2021/11/26 02:35:31;;;;;;;56.20;35.13;;;3.50;99.90;;;;;;5077535;28;20452;-84
2021/11/26 02:38:01;;;;;;;55.77;32.47;;;3.50;99.90;;;;;;5066916;28;20445;-85
2021/11/26 02:40:29;;;;;;;52.83;33.83;;;3.50;99.90;;;;;;5034371;28;20487;-86
2021/11/26 02:42:57;;;;;;;56.50;34.27;;;3.50;99.90;;;;;;5036340;28;20500;-86
2021/11/26 02:45:25;;;;;;;53.37;35.40;;;3.50;99.90;;;;;;5054141;28;20453;-86
2021/11/26 02:47:54;;;;;;;57.97;33.97;;;3.50;99.90;;;;;;5035197;28;20844;-85
2021/11/26 02:50:21;;;;;;;57.33;32.63;;;3.60;99.90;;;;;;5035793;28;20476;-86
2021/11/26 02:52:49;;;;;;;56.50;34.63;;;3.50;99.90;;;;;;5054579;28;20500;-85
2021/11/26 02:55:20;;;;;;;52.23;32.70;;;3.50;99.90;;;;;;5058700;28;20450;-85
2021/11/26 02:57:47;;;;;;;54.53;33.00;;;3.60;99.90;;;;;;5042232;28;20951;-86
2021/11/26 03:00:17;;;;;;;62.60;35.37;;;3.60;99.90;;;;;;5038298;28;20480;-86
2021/11/26 03:02:44;;;;;;;56.43;34.00;;;3.60;99.90;;;;;;5055020;28;20512;-86
2021/11/26 03:05:11;;;;;;;54.57;34.03;;;3.60;99.90;;;;;;5058253;28;20445;-85
2021/11/26 03:07:39;;;;;;;58.30;34.53;;;3.60;99.90;;;;;;5041953;28;20449;-86
2021/11/26 03:10:07;;;;;;;60.90;36.00;;;3.60;99.90;;;;;;5047542;28;20457;-85
2021/11/26 03:12:36;;;;;;;60.97;35.97;;;3.60;99.90;;;;;;5063314;28;20446;-86
2021/11/26 03:15:04;;;;;;;58.47;35.63;;;3.60;99.90;;;;;;5039831;28;20435;-86
2021/11/26 03:17:31;;;;;;;63.27;36.83;;;3.60;99.90;;;;;;5037648;28;20451;-85
2021/11/26 03:19:57;;;;;;;52.20;32.10;;;3.60;99.90;;;;;;5055081;28;20483;-86
2021/11/26 03:22:24;;;;;;;56.43;35.60;;;3.60;99.90;;;;;;5047245;28;20453;-86
2021/11/26 03:24:51;;;;;;;54.50;32.77;;;3.60;99.90;;;;;;5037887;28;20476;-85
2021/11/26 03:27:18;;;;;;;62.70;34.97;;;3.60;99.90;;;;;;5046893;28;20446;-86
2021/11/26 03:29:46;;;;;;;52.13;31.77;;;3.60;99.90;;;;;;5056551;28;20450;-87
2021/11/26 03:32:12;;;;;;;53.33;34.63;;;3.60;99.90;;;;;;5060273;28;20481;-86
2021/11/26 03:34:39;;;;;;;54.37;33.33;;;3.60;99.90;;;;;;5035621;28;20476;-86
2021/11/26 03:37:07;;;;;;;56.20;35.30;;;3.60;99.90;;;;;;5042906;28;20455;-86
2021/11/26 03:39:34;;;;;;;59.53;33.43;;;3.60;99.90;;;;;;5055433;28;20450;-85
2021/11/26 03:42:01;;;;;;;58.77;34.87;;;3.60;99.90;;;;;;5047795;28;20441;-86
2021/11/26 03:44:27;;;;;;;58.70;35.00;;;3.60;99.90;;;;;;5034880;28;20504;-86
2021/11/26 03:46:56;;;;;;;58.90;35.30;;;3.60;99.90;;;;;;5040870;28;20445;-85
2021/11/26 03:49:22;;;;;;;57.83;35.07;;;3.60;99.90;;;;;;5061054;28;20440;-85
2021/11/26 03:51:49;;;;;;;59.47;34.87;;;3.60;99.90;;;;;;5065066;28;20451;-85
2021/11/26 03:54:16;;;;;;;59.43;36.17;;;3.60;99.90;;;;;;5038544;28;20897;-87
2021/11/26 03:56:43;;;;;;;60.67;34.63;;;3.60;99.90;;;;;;5040680;28;20460;-86
2021/11/26 03:59:09;;;;;;;55.77;33.13;;;3.60;99.90;;;;;;5058325;28;20943;-87
2021/11/26 04:01:36;;;;;;;58.60;36.03;;;3.60;99.90;;;;;;5052525;28;20478;-85
2021/11/26 04:04:05;;;;;;;56.10;32.90;;;3.60;99.90;;;;;;5036380;28;20485;-86
2021/11/26 04:06:31;;;;;;;60.47;34.37;;;3.60;99.90;;;;;;5037418;28;20510;-87
2021/11/26 04:08:58;;;;;;;55.47;34.93;;;3.60;99.90;;;;;;5066090;28;20428;-83
2021/11/26 04:11:26;;;;;;;65.17;36.90;;;3.60;99.90;;;;;;5068884;28;20420;-84
2021/11/26 04:13:53;;;;;;;58.83;36.70;;;3.60;99.90;;;;;;5079364;28;20461;-85
2021/11/26 04:16:19;;;;;;;58.90;34.50;;;3.50;99.90;;;;;;5058727;28;20466;-86
2021/11/26 04:18:46;;;;;;;66.80;38.27;;;3.50;99.90;;;;;;5057692;28;20456;-87
2021/11/26 04:21:14;;;;;;;63.80;35.23;;;3.40;99.90;;;;;;5050223;28;20483;-87
2021/11/26 04:23:41;;;;;;;71.47;38.40;;;3.40;99.90;;;;;;5037090;28;20455;-87
2021/11/26 04:26:08;;;;;;;58.87;35.23;;;3.40;99.90;;;;;;5043088;28;20448;-87
2021/11/26 04:28:35;;;;;;;62.80;35.80;;;3.40;99.90;;;;;;5059657;28;20447;-86
2021/11/26 04:31:03;;;;;;;56.93;34.50;;;3.30;99.90;;;;;;5073679;28;20459;-85
2021/11/26 04:33:32;;;;;;;58.10;35.23;;;3.30;99.90;;;;;;5049109;28;20479;-87
2021/11/26 04:35:59;;;;;;;57.37;33.97;;;3.30;99.90;;;;;;5047666;28;20456;-86
2021/11/26 04:38:27;;;;;;;63.53;35.53;;;3.20;99.90;;;;;;5076053;28;20470;-83
2021/11/26 04:40:53;;;;;;;59.17;32.13;;;3.10;99.90;;;;;;5078349;28;20471;-84
2021/11/26 04:43:21;;;;;;;63.17;37.10;;;3.10;99.90;;;;;;5063083;28;20472;-87
2021/11/26 04:45:49;;;;;;;61.20;34.90;;;3.10;99.90;;;;;;5056948;28;20442;-86
2021/11/26 04:48:16;;;;;;;62.27;33.50;;;3.00;99.90;;;;;;5038471;28;20456;-86
2021/11/26 04:50:43;;;;;;;57.47;34.57;;;3.00;99.90;;;;;;5037780;28;20476;-85
2021/11/26 04:53:10;;;;;;;60.27;34.10;;;3.00;99.90;;;;;;5055397;28;20460;-87
2021/11/26 04:55:38;;;;;;;59.67;33.20;;;3.00;99.90;;;;;;5056765;28;20445;-87
2021/11/26 04:58:05;;;;;;;54.43;32.73;;;3.00;99.90;;;;;;5045955;28;20448;-88
2021/11/26 05:00:32;;;;;;;58.43;32.93;;;3.00;99.90;;;;;;5045412;28;20546;-87
2021/11/26 05:02:58;;;;;;;52.45;30.88;;;3.00;99.90;;;;;;5018101;28;20574;-87
2021/11/26 05:05:25;;;;;;;58.57;34.40;;;3.00;99.90;;;;;;5018245;28;20226;-86
2021/11/26 05:07:53;;;;;;;56.33;33.20;;;3.00;99.90;;;;;;5061546;28;20457;-87
2021/11/26 05:10:21;;;;;;;65.33;35.57;;;3.00;99.90;;;;;;5056752;28;20498;-86
2021/11/26 05:12:52;;;;;;;59.60;35.30;;;3.00;99.90;;;;;;5035768;28;20980;-86
2021/11/26 05:15:24;;;;;;;64.93;38.53;;;3.00;99.90;;;;;;5036232;28;20865;-86
2021/11/26 05:17:51;;;;;;;66.03;37.97;;;3.00;99.90;;;;;;5054240;28;20452;-86
2021/11/26 05:20:18;;;;;;;68.27;38.37;;;3.10;99.90;;;;;;5055441;28;20487;-86
2021/11/26 05:22:45;;;;;;;66.10;37.80;;;3.00;99.90;;;;;;5037209;28;20452;-86
2021/11/26 05:25:11;;;;;;;66.67;37.77;;;3.00;99.90;;;;;;5035244;28;20436;-85
2021/11/26 05:27:38;;;;;;;64.80;36.70;;;3.10;99.90;;;;;;5051630;28;20445;-86
2021/11/26 05:30:08;;;;;;;57.70;34.53;;;3.10;99.90;;;;;;5055519;28;20454;-87
2021/11/26 05:32:37;;;;;;;63.83;35.57;;;3.10;99.90;;;;;;5039521;28;20452;-86
2021/11/26 05:35:05;;;;;;;61.63;36.03;;;3.20;99.90;;;;;;5034904;28;20459;-86
2021/11/26 05:37:32;;;;;;;61.47;36.20;;;3.20;99.90;;;;;;5050721;28;20452;-86
2021/11/26 05:39:58;;;;;;;56.07;34.10;;;3.30;99.90;;;;;;5054688;28;20463;-86
2021/11/26 05:42:25;;;;;;;62.57;35.33;;;3.20;99.90;;;;;;5043113;28;20448;-86
2021/11/26 05:44:52;;;;;;;61.37;35.90;;;3.30;99.90;;;;;;5037132;28;20827;-85
2021/11/26 05:47:20;;;;;;;61.67;34.87;;;3.30;99.90;;;;;;5056342;28;20450;-85
2021/11/26 05:49:47;;;;;;;62.50;34.93;;;3.40;99.90;;;;;;5077326;28;20438;-83
2021/11/26 05:52:13;;;;;;;69.80;39.57;;;3.40;99.90;;;;;;5052078;28;20456;-86
2021/11/26 05:54:40;;;;;;;62.50;33.77;;;3.50;99.90;;;;;;5038789;28;20468;-87
2021/11/26 05:57:07;;;;;;;69.87;37.43;;;3.50;99.90;;;;;;5050645;28;20443;-86
2021/11/26 05:59:34;;;;;;;58.37;35.60;;;3.50;99.90;;;;;;5061482;28;20446;-86
2021/11/26 06:02:01;;;;;;;61.20;38.10;;;3.50;99.90;;;;;;5047471;28;20489;-86
2021/11/26 06:04:31;;;;;;;56.10;36.90;;;3.60;99.90;;;;;;5039743;28;20469;-86
2021/11/26 06:06:58;;;;;;;61.80;35.10;;;3.60;99.90;;;;;;5049477;28;20457;-87
2021/11/26 06:09:25;;;;;;;65.20;37.80;;;3.60;99.90;;;;;;5069443;28;20447;-86
2021/11/26 06:11:52;;;;;;;66.93;38.57;;;3.50;99.90;;;;;;5056389;28;20443;-87
2021/11/26 06:14:19;;;;;;;65.67;37.70;;;3.40;99.90;;;;;;5053976;28;20460;-84
2021/11/26 06:16:45;;;;;;;61.00;36.03;;;3.40;99.90;;;;;;5065589;28;20447;-86
2021/11/26 06:19:12;;;;;;;63.03;36.57;;;3.50;99.90;;;;;;5064112;28;20882;-87
2021/11/26 06:21:40;;;;;;;63.43;37.47;;;3.40;99.90;;;;;;5045702;28;20487;-87
2021/11/26 06:24:07;;;;;;;71.43;37.43;;;3.40;99.90;;;;;;5044294;28;20488;-86
2021/11/26 06:26:34;;;;;;;67.20;37.87;;;3.30;99.90;;;;;;5056801;28;20452;-87
2021/11/26 06:29:01;;;;;;;75.73;40.67;;;3.10;99.90;;;;;;5069695;28;20463;-87
2021/11/26 06:31:28;;;;;;;63.87;34.80;;;3.10;99.90;;;;;;5067262;28;20447;-87
2021/11/26 06:33:55;;;;;;;67.27;37.73;;;3.20;99.90;;;;;;5065312;28;20466;-86
2021/11/26 06:36:22;;;;;;;73.00;41.07;;;3.10;99.90;;;;;;5048575;28;20455;-87
2021/11/26 06:38:50;;;;;;;68.03;37.47;;;3.10;99.90;;;;;;5041782;28;20972;-85
2021/11/26 06:41:17;;;;;;;69.53;37.60;;;3.20;99.90;;;;;;5049665;28;20476;-86
2021/11/26 06:43:44;;;;;;;60.33;36.57;;;3.30;99.90;;;;;;5059691;28;20472;-88
2021/11/26 06:46:11;;;;;;;63.90;35.37;;;3.30;99.90;;;;;;5047326;28;20448;-86
2021/11/26 06:48:38;;;;;;;62.07;37.50;;;3.40;99.90;;;;;;5038139;28;20971;-85
2021/11/26 06:51:05;;;;;;;65.00;36.00;;;3.40;99.90;;;;;;5054049;28;20444;-86
2021/11/26 06:53:32;;;;;;;70.97;35.93;;;3.40;99.90;;;;;;5072368;28;20471;-83
2021/11/26 06:56:00;;;;;;;64.57;38.00;;;3.40;99.90;;;;;;5068072;28;20453;-84
2021/11/26 06:58:27;;;;;;;64.83;39.80;;;3.40;99.90;;;;;;5045079;28;20957;-87
2021/11/26 07:00:54;;;;;;;63.90;37.17;;;3.40;99.90;;;;;;5047472;28;20538;-87
2021/11/26 07:03:20;;;;;;;63.73;34.80;;;3.40;99.90;;;;;;5058698;28;20475;-87
2021/11/26 07:05:47;;;;;;;58.13;36.17;;;3.30;99.90;;;;;;5053402;28;20450;-87
2021/11/26 07:08:14;;;;;;;68.90;35.63;;;3.30;99.90;;;;;;5038999;28;20809;-86
2021/11/26 07:10:41;;;;;;;65.50;36.50;;;3.30;99.90;;;;;;5049075;28;20461;-87
2021/11/26 07:13:09;;;;;;;70.03;36.97;;;3.40;99.90;;;;;;5055940;28;20474;-87
2021/11/26 07:15:36;;;;;;;61.80;35.03;;;3.30;99.90;;;;;;5044583;28;20451;-87
2021/11/26 07:18:03;;;;;;;61.63;33.60;;;3.40;99.90;;;;;;5044036;28;20441;-86
2021/11/26 07:20:31;;;;;;;64.77;37.53;;;3.40;99.90;;;;;;5044691;28;20465;-88
2021/11/26 07:22:59;;;;;;;61.90;36.47;;;3.40;99.90;;;;;;5046543;28;20464;-87
2021/11/26 07:25:26;;;;;;;64.30;37.67;;;3.40;99.90;;;;;;5050871;28;20527;-90
2021/11/26 07:27:56;;;;;;;61.30;34.30;;;3.40;99.90;;;;;;5049401;28;20456;-94
2021/11/26 07:30:24;;;;;;;56.07;32.17;;;3.50;99.90;;;;;;5044742;28;20448;-88
2021/11/26 07:32:51;;;;;;;62.70;36.60;;;3.50;99.90;;;;;;5044827;28;21031;-88
2021/11/26 07:35:17;;;;;;;56.10;30.53;;;3.50;99.90;;;;;;5032685;28;20480;-88
2021/11/26 07:37:44;;;;;;;57.57;32.00;;;3.50;99.90;;;;;;5046972;28;20532;-88
2021/11/26 07:40:15;;;;;;;57.27;32.00;;;3.50;99.90;;;;;;5042373;28;20455;-88
2021/11/26 07:42:42;;;;;;;49.73;29.70;;;3.50;99.90;;;;;;5052972;28;20547;-88
2021/11/26 07:45:13;;;;;;;54.53;32.40;;;3.50;99.90;;;;;;5055377;28;20448;-88
2021/11/26 07:47:41;;;;;;;52.83;29.40;;;3.50;99.90;;;;;;5054730;28;20494;-88
2021/11/26 07:50:10;;;;;;;55.23;30.93;;;3.60;99.90;;;;;;5036932;28;20459;-88
2021/11/26 07:52:37;;;;;;;56.10;32.10;;;3.60;99.90;;;;;;5044124;28;20458;-88
2021/11/26 07:55:05;;;;;;;50.43;28.73;;;3.70;99.90;;;;;;5069509;28;20432;-87
2021/11/26 07:57:31;;;;;;;53.47;28.87;;;3.70;99.90;;;;;;5041155;28;20445;-88
2021/11/26 07:59:58;;;;;;;50.70;29.33;;;3.70;99.90;;;;;;5046326;28;20440;-89
2021/11/26 08:02:25;;;;;;;47.10;29.60;;;3.70;99.90;;;;;;5055982;28;20484;-88
2021/11/26 08:04:53;;;;;;;52.10;29.43;;;3.80;99.90;;;;;;5036642;28;20480;-88
2021/11/26 08:07:20;;;;;;;53.17;31.23;;;3.80;99.90;;;;;;5045289;28;20463;-88
2021/11/26 08:09:46;;;;;;;52.93;29.60;;;3.80;99.90;;;;;;5056727;28;20462;-88
2021/11/26 08:12:13;;;;;;;51.87;31.50;;;3.80;99.90;;;;;;5054273;28;20474;-86
2021/11/26 08:14:40;;;;;;;46.80;27.40;;;3.90;99.90;;;;;;5063007;28;20466;-87
2021/11/26 08:17:07;;;;;;;53.70;29.67;;;3.90;99.90;;;;;;5051440;28;20456;-87
2021/11/26 08:19:34;;;;;;;47.27;29.87;;;3.90;99.90;;;;;;5036328;28;20984;-87
2021/11/26 08:22:02;;;;;;;48.50;30.70;;;3.90;99.90;;;;;;5050112;28;20829;-89
2021/11/26 08:24:29;;;;;;;50.10;31.30;;;4.00;99.90;;;;;;5051012;28;20969;-89
2021/11/26 08:26:58;;;;;;;52.47;27.30;;;4.00;99.90;;;;;;5036950;28;20449;-88
2021/11/26 08:29:24;;;;;;;54.73;32.50;;;4.00;99.90;;;;;;5054712;28;20451;-89
2021/11/26 08:31:52;;;;;;;46.77;27.27;;;4.00;99.90;;;;;;5052330;28;20447;-87
2021/11/26 08:34:18;;;;;;;55.07;29.50;;;4.00;99.90;;;;;;5038178;28;21006;-90
2021/11/26 08:36:45;;;;;;;47.20;28.33;;;4.00;99.90;;;;;;5050767;28;20458;-89
2021/11/26 08:39:13;;;;;;;53.97;34.00;;;4.10;99.90;;;;;;5065225;28;20470;-90
2021/11/26 08:41:41;;;;;;;54.33;31.33;;;4.10;99.90;;;;;;5069811;28;20486;-87
2021/11/26 08:44:08;;;;;;;48.03;30.67;;;4.10;99.90;;;;;;5040133;28;20473;-88
2021/11/26 08:46:35;;;;;;;50.10;29.10;;;4.10;99.90;;;;;;5048386;28;20585;-88
2021/11/26 08:49:03;;;;;;;51.67;29.87;;;4.10;99.90;;;;;;5056375;28;20450;-87
2021/11/26 08:51:34;;;;;;;65.23;31.97;;;4.10;99.90;;;;;;5056447;28;20451;-88
2021/11/26 08:54:01;;;;;;;57.10;30.50;;;4.10;99.90;;;;;;5046518;28;20467;-88
2021/11/26 08:56:30;;;;;;;53.40;31.60;;;4.00;99.90;;;;;;5057523;28;20441;-88
2021/11/26 08:58:57;;;;;;;56.20;33.60;;;4.00;99.90;;;;;;5076238;28;20514;-88
2021/11/26 09:01:24;;;;;;;65.80;35.70;;;4.00;99.90;;;;;;5057680;28;20481;-88
2021/11/26 09:03:51;;;;;;;59.40;30.73;;;4.00;99.90;;;;;;5048479;28;20480;-88
2021/11/26 09:06:20;;;;;;;62.17;34.47;;;4.00;99.90;;;;;;5061959;28;20443;-87
2021/11/26 09:08:47;;;;;;;57.87;32.90;;;4.10;99.90;;;;;;5053064;28;20965;-87
2021/11/26 09:11:15;;;;;;;61.53;35.60;;;4.10;99.90;;;;;;5057860;28;20449;-87
2021/11/26 09:13:44;;;;;;;58.10;32.17;;;4.00;99.90;;;;;;5067368;28;20487;-88
2021/11/26 09:16:11;;;;;;;59.23;32.50;;;4.10;99.90;;;;;;5050837;28;20449;-87
2021/11/26 09:18:38;;;;;;;67.43;33.17;;;4.10;99.90;;;;;;5040428;28;20456;-88
2021/11/26 09:21:05;;;;;;;58.17;34.43;;;4.10;99.90;;;;;;5051616;28;20451;-88
2021/11/26 09:23:33;;;;;;;54.50;33.63;;;4.20;99.90;;;;;;5060581;28;20491;-88
2021/11/26 09:26:00;;;;;;;54.73;33.03;;;4.20;99.90;;;;;;5047171;28;20899;-88
2021/11/26 09:28:27;;;;;;;53.20;32.17;;;4.30;99.90;;;;;;5041104;28;20460;-87
2021/11/26 09:30:55;;;;;;;57.30;34.07;;;4.30;99.90;;;;;;5045376;28;20448;-87
2021/11/26 09:33:22;;;;;;;57.93;31.57;;;4.30;99.90;;;;;;5058266;28;20842;-87
2021/11/26 09:35:50;;;;;;;52.03;29.97;;;4.40;99.90;;;;;;5049184;28;20446;-87
2021/11/26 09:38:18;;;;;;;65.47;36.40;;;4.40;99.90;;;;;;5036222;28;20445;-85
2021/11/26 09:40:45;;;;;;;56.00;31.43;;;4.40;99.90;;;;;;5042027;28;20453;-89
2021/11/26 09:43:13;;;;;;;61.17;33.77;;;4.40;99.90;;;;;;5055616;28;20482;-87
2021/11/26 09:45:39;;;;;;;55.43;31.53;;;4.50;99.90;;;;;;5050167;28;20476;-86
2021/11/26 09:48:08;;;;;;;54.37;31.77;;;4.50;99.90;;;;;;5035366;28;20442;-87
2021/11/26 09:50:35;;;;;;;61.83;32.97;;;4.50;99.90;;;;;;5038004;28;20455;-88
2021/11/26 09:53:14;;;;;;;47.20;27.80;;;4.50;99.90;;;;;;5059679;28;20475;-87
2021/11/26 09:55:45;;;;;;;49.63;30.63;;;4.50;99.90;;;;;;5060752;28;20453;-87
2021/11/26 09:58:12;;;;;;;52.90;29.27;;;4.40;99.90;;;;;;5039965;28;20449;-90
2021/11/26 10:00:39;;;;;;;51.17;29.50;;;4.40;99.90;;;;;;5048196;28;20459;-87
2021/11/26 10:03:07;;;;;;;56.10;31.67;;;4.40;99.90;;;;;;5053548;28;20498;-87
2021/11/26 10:05:36;;;;;;;50.47;29.00;;;4.40;99.90;;;;;;5051954;28;20945;-87
2021/11/26 10:08:04;;;;;;;53.90;34.37;;;4.40;99.90;;;;;;5066296;28;20439;-86
2021/11/26 10:10:33;;;;;;;50.80;30.23;;;4.50;99.90;;;;;;5070464;28;20448;-87
2021/11/26 10:13:02;;;;;;;50.50;29.07;;;4.40;99.90;;;;;;5054814;28;20473;-88
2021/11/26 10:15:37;;;;;;;47.00;30.50;;;4.50;99.90;;;;;;5038076;28;20876;-87
2021/11/26 10:18:09;;;;;;;47.63;28.77;;;4.50;99.90;;;;;;5036569;28;20464;-87
2021/11/26 10:20:36;;;;;;;48.87;28.27;;;4.50;99.90;;;;;;5033728;28;20449;-88
2021/11/26 10:23:06;;;;;;;55.67;30.00;;;4.50;99.90;;;;;;5034144;28;20492;-87
2021/11/26 10:25:32;;;;;;;54.03;30.17;;;4.60;99.90;;;;;;5038741;28;20480;-88
2021/11/26 10:28:03;;;;;;;48.53;30.13;;;4.60;99.90;;;;;;5042154;28;20441;-87
2021/11/26 10:30:33;;;;;;;53.67;32.00;;;4.70;99.90;;;;;;5050856;28;20444;-86
2021/11/26 10:33:03;;;;;;;57.90;33.30;;;4.70;99.90;;;;;;5045299;28;20982;-79
2021/11/26 10:35:34;;;;;;;52.23;30.93;;;4.80;99.90;;;;;;5034367;28;20848;-79
2021/11/26 10:38:04;;;;;;;55.93;30.23;;;4.80;99.90;;;;;;5035464;28;20429;-79
2021/11/26 10:40:33;;;;;;;52.73;29.60;;;4.80;99.90;;;;;;5030630;28;20441;-86
2021/11/26 10:43:02;;;;;;;47.30;28.60;;;4.80;99.90;;;;;;5033882;28;20484;-87
2021/11/26 10:45:59;;;;;;;57.47;30.97;;;4.70;99.90;;;;;;5019923;28;20450;-87
2021/11/26 10:48:47;;;;;;;53.13;28.17;;;4.70;99.90;;;;;;5051214;28;20445;-86
2021/11/26 10:51:34;;;;;;;53.63;30.77;;;4.70;99.90;;;;;;5055134;28;20426;-87
2021/11/26 10:57:24;;;;;;;47.73;28.17;;;4.80;99.90;;;;;;5040985;28;20992;-89
2021/11/26 10:59:54;;;;;;;47.67;28.90;;;4.80;99.90;;;;;;5035144;28;20456;-89
2021/11/26 11:02:25;;;;;;;57.47;29.70;;;4.90;99.90;;;;;;5040466;28;20481;-90
2021/11/26 11:04:52;;;;;;;45.57;28.40;;;4.90;99.90;;;;;;5038244;28;20479;-90
2021/11/26 11:07:21;;;;;;;57.30;29.93;;;4.80;99.90;;;;;;5040430;28;20476;-89
2021/11/26 11:09:51;;;;;;;48.20;27.63;;;4.90;99.90;;;;;;5042350;28;21024;-89
2021/11/26 11:12:28;;;;;;;54.87;30.83;;;4.90;99.90;;;;;;5045486;28;20448;-90
2021/11/26 11:14:57;;;;;;;50.10;30.10;;;4.90;99.90;;;;;;5042866;28;20440;-90
2021/11/26 11:17:28;;;;;;;48.53;29.80;;;4.90;99.90;;;;;;5044909;28;20535;-90
2021/11/26 11:19:57;;;;;;;44.70;26.63;;;4.90;99.90;;;;;;5045714;28;20521;-90
2021/11/26 11:22:26;;;;;;;48.17;29.27;;;5.00;99.90;;;;;;5043497;28;20563;-89
2021/11/26 11:24:54;;;;;;;58.30;31.13;;;5.00;99.90;;;;;;5038717;28;20836;-89
2021/11/26 11:30:39;;;;;;;51.30;30.17;;;4.90;99.90;;;;;;5052339;28;20456;-95
2021/11/26 11:51:36;;;;;;;46.50;27.27;;;4.80;99.90;;;;;;5055290;28;20467;-87
2021/11/26 11:54:07;;;;;;;47.63;30.37;;;4.80;99.90;;;;;;5041777;28;20468;-88
2021/11/26 11:56:44;;;;;;;48.80;25.97;;;4.80;99.90;;;;;;5047174;28;20454;-89
2021/11/26 11:59:11;;;;;;;46.30;26.00;;;4.70;99.90;;;;;;5048573;28;20487;-89
2021/11/26 12:01:41;;;;;;;47.03;26.67;;;4.80;99.90;;;;;;5042137;28;20441;-88
2021/11/26 12:04:16;;;;;;;48.97;29.30;;;4.80;99.90;;;;;;5058766;28;20488;-88
2021/11/26 12:06:46;;;;;;;43.20;24.47;;;4.90;99.90;;;;;;5059805;28;20475;-87
2021/11/26 12:09:24;;;;;;;41.73;25.03;;;5.00;99.90;;;;;;5055096;28;20447;-88
2021/11/26 12:12:05;;;;;;;39.00;25.00;;;5.00;99.90;;;;;;5039410;28;20448;-89
2021/11/26 12:14:32;;;;;;;45.07;26.43;;;5.00;99.90;;;;;;5050366;28;20465;-88
2021/11/26 12:19:39;;;;;;;48.57;27.37;;;5.00;99.90;;;;;;5057466;28;21010;-88
2021/11/26 12:22:14;;;;;;;47.37;27.20;;;5.10;99.90;;;;;;5042087;28;20440;-88
2021/11/26 12:24:43;;;;;;;47.37;27.00;;;5.00;99.90;;;;;;5049235;28;20472;-88
2021/11/26 12:27:22;;;;;;;47.50;27.33;;;5.00;99.90;;;;;;5047690;28;20816;-88
2021/11/26 12:29:51;;;;;;;42.37;26.07;;;5.00;99.90;;;;;;5039952;28;20456;-88
2021/11/26 12:32:19;;;;;;;49.37;30.07;;;5.00;99.90;;;;;;5049460;28;20559;-88
2021/11/26 12:34:48;;;;;;;51.13;28.43;;;5.00;99.90;;;;;;5031609;28;20479;-88
2021/11/26 12:37:22;;;;;;;42.50;25.33;;;5.10;99.90;;;;;;5029843;28;20934;-88
2021/11/26 12:39:50;;;;;;;43.50;25.27;;;5.10;99.90;;;;;;5033238;28;20446;-89
2021/11/26 12:42:18;;;;;;;50.60;26.60;;;5.10;99.90;;;;;;5036081;28;20541;-88
2021/11/26 12:44:56;;;;;;;40.67;24.90;;;5.10;99.90;;;;;;5034793;28;20485;-94
2021/11/26 12:47:23;;;;;;;38.80;22.30;;;5.10;99.90;;;;;;5049089;28;20461;-93
2021/11/26 12:52:35;;;;;;;40.03;25.13;;;5.10;99.90;;;;;;5051990;28;20474;-94
2021/11/26 12:55:03;;;;;;;48.23;25.40;;;5.20;99.90;;;;;;5053644;28;20592;-93
2021/11/26 12:57:32;;;;;;;40.50;24.20;;;5.20;99.90;;;;;;5042084;28;20450;-89
2021/11/26 13:00:02;;;;;;;41.30;25.80;;;5.20;99.90;;;;;;5038876;28;20520;-93
2021/11/26 13:02:33;;;;;;;44.00;25.53;;;5.10;99.90;;;;;;5057749;28;20445;-93
2021/11/26 13:10:14;;;;;;;44.33;25.10;;;5.20;99.90;;;;;;4380348;26;20534;-87
2021/11/26 13:12:49;;;;;;;41.60;24.77;;;5.20;99.90;;;;;;5053094;28;20447;-88
2021/11/26 13:15:23;;;;;;;41.10;24.03;;;5.20;99.90;;;;;;5034833;28;20470;-88